sensor_id;sensor_type;location;lat;lon;timestamp;temperature;humidity
21778;DHT22;11050;52.222;20.916;2023-06-22T00:00:50;19.40;99.90
21778;DHT22;11050;52.222;20.916;2023-06-22T00:03:18;19.40;99.90
21778;DHT22;11050;52.222;20.916;2023-06-22T00:05:45;19.40;99.90
21778;DHT22;11050;52.222;20.916;2023-06-22T00:08:12;19.40;99.90
21778;DHT22;11050;52.222;20.916;2023-06-22T00:10:37;19.40;99.90
21778;DHT22;11050;52.222;20.916;2023-06-22T00:13:05;19.30;99.90
21778;DHT22;11050;52.222;20.916;2023-06-22T00:15:31;19.30;99.90
21778;DHT22;11050;52.222;20.916;2023-06-22T00:17:58;19.30;99.90
21778;DHT22;11050;52.222;20.916;2023-06-22T00:20:24;19.20;99.90
21778;DHT22;11050;52.222;20.916;2023-06-22T00:22:55;19.20;99.90
21778;DHT22;11050;52.222;20.916;2023-06-22T00:25:21;19.20;99.90
21778;DHT22;11050;52.222;20.916;2023-06-22T00:27:47;19.20;99.90
21778;DHT22;11050;52.222;20.916;2023-06-22T00:30:15;19.20;99.90
21778;DHT22;11050;52.222;20.916;2023-06-22T00:32:42;19.20;99.90
21778;DHT22;11050;52.222;20.916;2023-06-22T00:35:09;19.20;99.90
21778;DHT22;11050;52.222;20.916;2023-06-22T00:37:36;19.20;99.90
21778;DHT22;11050;52.222;20.916;2023-06-22T00:40:03;19.20;99.90
21778;DHT22;11050;52.222;20.916;2023-06-22T00:42:30;19.20;99.90
21778;DHT22;11050;52.222;20.916;2023-06-22T00:44:56;19.20;99.90
21778;DHT22;11050;52.222;20.916;2023-06-22T00:47:22;19.20;99.90
21778;DHT22;11050;52.222;20.916;2023-06-22T00:49:49;19.30;99.90
21778;DHT22;11050;52.222;20.916;2023-06-22T00:52:20;19.20;99.90
21778;DHT22;11050;52.222;20.916;2023-06-22T00:54:52;19.20;99.90
21778;DHT22;11050;52.222;20.916;2023-06-22T00:57:20;19.20;99.90
21778;DHT22;11050;52.222;20.916;2023-06-22T00:59:48;19.20;99.90
21778;DHT22;11050;52.222;20.916;2023-06-22T01:02:14;19.20;99.90
21778;DHT22;11050;52.222;20.916;2023-06-22T01:04:40;19.20;99.90
21778;DHT22;11050;52.222;20.916;2023-06-22T01:07:35;19.20;99.90
21778;DHT22;11050;52.222;20.916;2023-06-22T01:13:29;19.20;99.90
21778;DHT22;11050;52.222;20.916;2023-06-22T01:16:33;19.10;99.90
21778;DHT22;11050;52.222;20.916;2023-06-22T01:19:23;19.10;99.90
21778;DHT22;11050;52.222;20.916;2023-06-22T01:22:00;19.10;99.90
21778;DHT22;11050;52.222;20.916;2023-06-22T01:24:32;19.10;99.90
21778;DHT22;11050;52.222;20.916;2023-06-22T01:27:34;19.10;99.90
21778;DHT22;11050;52.222;20.916;2023-06-22T01:30:07;19.10;99.90
21778;DHT22;11050;52.222;20.916;2023-06-22T01:32:37;19.00;99.90
21778;DHT22;11050;52.222;20.916;2023-06-22T01:35:06;19.00;99.90
21778;DHT22;11050;52.222;20.916;2023-06-22T01:37:35;19.00;99.90
21778;DHT22;11050;52.222;20.916;2023-06-22T01:40:05;19.00;99.90
21778;DHT22;11050;52.222;20.916;2023-06-22T01:42:34;19.00;99.90
21778;DHT22;11050;52.222;20.916;2023-06-22T01:45:02;19.00;99.90
21778;DHT22;11050;52.222;20.916;2023-06-22T01:47:28;19.00;99.90
21778;DHT22;11050;52.222;20.916;2023-06-22T01:49:55;19.00;99.90
21778;DHT22;11050;52.222;20.916;2023-06-22T01:52:21;19.00;99.90
21778;DHT22;11050;52.222;20.916;2023-06-22T01:54:47;19.00;99.90
21778;DHT22;11050;52.222;20.916;2023-06-22T01:57:16;19.00;99.90
21778;DHT22;11050;52.222;20.916;2023-06-22T02:00:02;19.00;99.90
21778;DHT22;11050;52.222;20.916;2023-06-22T02:02:45;19.00;99.90
21778;DHT22;11050;52.222;20.916;2023-06-22T02:05:16;19.00;99.90
21778;DHT22;11050;52.222;20.916;2023-06-22T02:07:51;18.90;99.90
21778;DHT22;11050;52.222;20.916;2023-06-22T02:10:23;18.90;99.90
21778;DHT22;11050;52.222;20.916;2023-06-22T02:12:50;18.90;99.90
21778;DHT22;11050;52.222;20.916;2023-06-22T02:15:18;19.00;99.90
21778;DHT22;11050;52.222;20.916;2023-06-22T02:17:44;18.90;99.90
21778;DHT22;11050;52.222;20.916;2023-06-22T02:20:16;19.00;99.90
21778;DHT22;11050;52.222;20.916;2023-06-22T02:22:42;19.00;99.90
21778;DHT22;11050;52.222;20.916;2023-06-22T02:25:08;18.90;99.90
21778;DHT22;11050;52.222;20.916;2023-06-22T02:27:34;19.00;99.90
21778;DHT22;11050;52.222;20.916;2023-06-22T02:30:00;19.00;99.90
21778;DHT22;11050;52.222;20.916;2023-06-22T02:32:25;19.00;99.90
21778;DHT22;11050;52.222;20.916;2023-06-22T02:34:52;19.00;99.90
21778;DHT22;11050;52.222;20.916;2023-06-22T02:37:18;19.00;99.90
21778;DHT22;11050;52.222;20.916;2023-06-22T02:39:44;19.00;99.90
21778;DHT22;11050;52.222;20.916;2023-06-22T02:42:10;19.00;99.90
21778;DHT22;11050;52.222;20.916;2023-06-22T02:44:36;19.00;99.90
21778;DHT22;11050;52.222;20.916;2023-06-22T02:47:02;19.00;99.90
21778;DHT22;11050;52.222;20.916;2023-06-22T02:49:28;19.00;99.90
21778;DHT22;11050;52.222;20.916;2023-06-22T02:51:54;19.00;99.90
21778;DHT22;11050;52.222;20.916;2023-06-22T02:54:20;19.00;99.90
21778;DHT22;11050;52.222;20.916;2023-06-22T02:56:46;19.00;99.90
21778;DHT22;11050;52.222;20.916;2023-06-22T02:59:13;19.00;99.90
21778;DHT22;11050;52.222;20.916;2023-06-22T03:01:39;19.10;99.90
21778;DHT22;11050;52.222;20.916;2023-06-22T03:04:09;19.00;99.90
21778;DHT22;11050;52.222;20.916;2023-06-22T03:06:35;19.00;99.90
21778;DHT22;11050;52.222;20.916;2023-06-22T03:09:04;19.10;99.90
21778;DHT22;11050;52.222;20.916;2023-06-22T03:11:31;19.10;99.90
21778;DHT22;11050;52.222;20.916;2023-06-22T03:13:58;19.10;99.90
21778;DHT22;11050;52.222;20.916;2023-06-22T03:16:24;19.10;99.90
21778;DHT22;11050;52.222;20.916;2023-06-22T03:18:50;19.10;99.90
21778;DHT22;11050;52.222;20.916;2023-06-22T03:21:16;19.10;99.90
21778;DHT22;11050;52.222;20.916;2023-06-22T03:23:42;19.10;99.90
21778;DHT22;11050;52.222;20.916;2023-06-22T03:26:09;19.10;99.90
21778;DHT22;11050;52.222;20.916;2023-06-22T03:28:35;19.20;99.90
21778;DHT22;11050;52.222;20.916;2023-06-22T03:31:01;19.20;99.90
21778;DHT22;11050;52.222;20.916;2023-06-22T03:33:26;19.20;99.90
21778;DHT22;11050;52.222;20.916;2023-06-22T03:35:52;19.20;99.90
21778;DHT22;11050;52.222;20.916;2023-06-22T03:38:19;19.20;99.90
21778;DHT22;11050;52.222;20.916;2023-06-22T03:40:45;19.20;99.90
21778;DHT22;11050;52.222;20.916;2023-06-22T03:43:10;19.30;99.90
21778;DHT22;11050;52.222;20.916;2023-06-22T03:45:36;19.30;99.90
21778;DHT22;11050;52.222;20.916;2023-06-22T03:48:02;19.30;99.90
21778;DHT22;11050;52.222;20.916;2023-06-22T03:50:28;19.30;99.90
21778;DHT22;11050;52.222;20.916;2023-06-22T03:52:55;19.30;99.90
21778;DHT22;11050;52.222;20.916;2023-06-22T03:55:21;19.40;99.90
21778;DHT22;11050;52.222;20.916;2023-06-22T03:57:47;19.40;99.90
21778;DHT22;11050;52.222;20.916;2023-06-22T04:00:13;19.40;99.90
21778;DHT22;11050;52.222;20.916;2023-06-22T04:02:41;19.50;99.90
21778;DHT22;11050;52.222;20.916;2023-06-22T04:05:09;19.60;99.90
21778;DHT22;11050;52.222;20.916;2023-06-22T04:07:35;19.60;99.90
21778;DHT22;11050;52.222;20.916;2023-06-22T04:10:06;19.60;99.90
21778;DHT22;11050;52.222;20.916;2023-06-22T04:12:32;19.70;99.90
21778;DHT22;11050;52.222;20.916;2023-06-22T04:14:59;19.70;99.90
21778;DHT22;11050;52.222;20.916;2023-06-22T04:17:25;19.70;99.90
21778;DHT22;11050;52.222;20.916;2023-06-22T04:19:51;19.80;99.90
21778;DHT22;11050;52.222;20.916;2023-06-22T04:22:17;19.80;99.90
21778;DHT22;11050;52.222;20.916;2023-06-22T04:24:44;19.80;99.90
21778;DHT22;11050;52.222;20.916;2023-06-22T04:27:10;19.80;99.90
21778;DHT22;11050;52.222;20.916;2023-06-22T04:29:37;19.90;99.90
21778;DHT22;11050;52.222;20.916;2023-06-22T04:32:04;19.90;99.90
21778;DHT22;11050;52.222;20.916;2023-06-22T04:34:31;19.90;99.90
21778;DHT22;11050;52.222;20.916;2023-06-22T04:36:57;20.00;99.90
21778;DHT22;11050;52.222;20.916;2023-06-22T04:39:23;20.00;99.90
21778;DHT22;11050;52.222;20.916;2023-06-22T04:41:50;20.00;99.90
21778;DHT22;11050;52.222;20.916;2023-06-22T04:44:18;20.10;99.90
21778;DHT22;11050;52.222;20.916;2023-06-22T04:46:50;20.10;99.90
21778;DHT22;11050;52.222;20.916;2023-06-22T04:49:22;20.10;99.90
21778;DHT22;11050;52.222;20.916;2023-06-22T04:51:48;20.20;99.90
21778;DHT22;11050;52.222;20.916;2023-06-22T04:54:15;20.20;99.90
21778;DHT22;11050;52.222;20.916;2023-06-22T04:56:40;20.30;99.90
21778;DHT22;11050;52.222;20.916;2023-06-22T04:59:06;20.30;99.90
21778;DHT22;11050;52.222;20.916;2023-06-22T05:01:33;20.40;99.90
21778;DHT22;11050;52.222;20.916;2023-06-22T05:04:00;20.40;99.90
21778;DHT22;11050;52.222;20.916;2023-06-22T05:06:28;20.40;99.90
21778;DHT22;11050;52.222;20.916;2023-06-22T05:08:55;20.50;99.90
21778;DHT22;11050;52.222;20.916;2023-06-22T05:11:28;20.60;99.90
21778;DHT22;11050;52.222;20.916;2023-06-22T05:13:54;20.60;99.90
21778;DHT22;11050;52.222;20.916;2023-06-22T05:16:21;20.60;99.90
21778;DHT22;11050;52.222;20.916;2023-06-22T05:18:55;20.70;99.90
21778;DHT22;11050;52.222;20.916;2023-06-22T05:21:25;20.70;99.90
21778;DHT22;11050;52.222;20.916;2023-06-22T05:23:53;20.70;99.90
21778;DHT22;11050;52.222;20.916;2023-06-22T05:26:20;20.80;99.90
21778;DHT22;11050;52.222;20.916;2023-06-22T05:28:47;20.80;99.90
21778;DHT22;11050;52.222;20.916;2023-06-22T05:31:14;20.80;99.90
21778;DHT22;11050;52.222;20.916;2023-06-22T05:33:42;20.90;99.90
21778;DHT22;11050;52.222;20.916;2023-06-22T05:36:08;21.00;99.90
21778;DHT22;11050;52.222;20.916;2023-06-22T05:38:36;21.10;99.90
21778;DHT22;11050;52.222;20.916;2023-06-22T05:41:02;21.10;99.90
21778;DHT22;11050;52.222;20.916;2023-06-22T05:43:28;21.20;99.90
21778;DHT22;11050;52.222;20.916;2023-06-22T05:45:54;21.20;99.90
21778;DHT22;11050;52.222;20.916;2023-06-22T05:48:20;21.30;99.90
21778;DHT22;11050;52.222;20.916;2023-06-22T05:50:46;21.30;99.90
21778;DHT22;11050;52.222;20.916;2023-06-22T05:53:11;21.30;99.90
21778;DHT22;11050;52.222;20.916;2023-06-22T05:55:37;21.40;99.90
21778;DHT22;11050;52.222;20.916;2023-06-22T05:58:03;21.40;99.90
21778;DHT22;11050;52.222;20.916;2023-06-22T06:00:29;21.50;99.90
21778;DHT22;11050;52.222;20.916;2023-06-22T06:02:55;21.50;99.90
21778;DHT22;11050;52.222;20.916;2023-06-22T06:05:22;21.60;99.90
21778;DHT22;11050;52.222;20.916;2023-06-22T06:07:49;21.60;99.90
21778;DHT22;11050;52.222;20.916;2023-06-22T06:10:15;21.60;99.90
21778;DHT22;11050;52.222;20.916;2023-06-22T06:12:41;21.70;99.90
21778;DHT22;11050;52.222;20.916;2023-06-22T06:15:07;21.80;99.90
21778;DHT22;11050;52.222;20.916;2023-06-22T06:17:33;21.90;99.90
21778;DHT22;11050;52.222;20.916;2023-06-22T06:19:59;21.90;99.90
21778;DHT22;11050;52.222;20.916;2023-06-22T06:22:25;22.00;99.90
21778;DHT22;11050;52.222;20.916;2023-06-22T06:24:51;22.10;99.90
21778;DHT22;11050;52.222;20.916;2023-06-22T06:27:17;22.30;99.90
21778;DHT22;11050;52.222;20.916;2023-06-22T06:29:45;22.30;99.90
21778;DHT22;11050;52.222;20.916;2023-06-22T06:32:13;22.40;99.90
21778;DHT22;11050;52.222;20.916;2023-06-22T06:34:39;22.50;99.90
21778;DHT22;11050;52.222;20.916;2023-06-22T06:37:06;22.60;99.90
21778;DHT22;11050;52.222;20.916;2023-06-22T06:39:32;22.60;99.90
21778;DHT22;11050;52.222;20.916;2023-06-22T06:41:57;22.70;99.90
21778;DHT22;11050;52.222;20.916;2023-06-22T06:44:23;22.60;99.90
21778;DHT22;11050;52.222;20.916;2023-06-22T06:46:49;22.70;99.90
21778;DHT22;11050;52.222;20.916;2023-06-22T06:49:14;22.70;99.90
21778;DHT22;11050;52.222;20.916;2023-06-22T06:51:40;22.80;99.90
21778;DHT22;11050;52.222;20.916;2023-06-22T06:54:06;22.90;99.90
21778;DHT22;11050;52.222;20.916;2023-06-22T06:56:32;22.90;99.90
21778;DHT22;11050;52.222;20.916;2023-06-22T06:58:58;23.00;99.90
21778;DHT22;11050;52.222;20.916;2023-06-22T07:01:24;23.00;99.90
21778;DHT22;11050;52.222;20.916;2023-06-22T07:03:50;23.10;99.90
21778;DHT22;11050;52.222;20.916;2023-06-22T07:06:16;23.10;99.90
21778;DHT22;11050;52.222;20.916;2023-06-22T07:08:42;23.20;99.90
21778;DHT22;11050;52.222;20.916;2023-06-22T07:11:08;23.20;99.90
21778;DHT22;11050;52.222;20.916;2023-06-22T07:13:34;23.30;99.90
21778;DHT22;11050;52.222;20.916;2023-06-22T07:16:00;23.40;99.90
21778;DHT22;11050;52.222;20.916;2023-06-22T07:18:25;23.50;99.90
21778;DHT22;11050;52.222;20.916;2023-06-22T07:20:52;23.60;99.90
21778;DHT22;11050;52.222;20.916;2023-06-22T07:23:18;23.60;99.90
21778;DHT22;11050;52.222;20.916;2023-06-22T07:25:43;23.60;99.90
21778;DHT22;11050;52.222;20.916;2023-06-22T07:28:09;23.70;99.90
21778;DHT22;11050;52.222;20.916;2023-06-22T07:30:35;23.80;99.90
21778;DHT22;11050;52.222;20.916;2023-06-22T07:33:01;23.80;99.90
21778;DHT22;11050;52.222;20.916;2023-06-22T07:35:33;23.80;99.90
21778;DHT22;11050;52.222;20.916;2023-06-22T07:37:59;23.80;99.90
21778;DHT22;11050;52.222;20.916;2023-06-22T07:40:26;23.90;99.90
21778;DHT22;11050;52.222;20.916;2023-06-22T07:42:52;23.90;99.90
21778;DHT22;11050;52.222;20.916;2023-06-22T07:45:18;24.00;99.90
21778;DHT22;11050;52.222;20.916;2023-06-22T07:47:44;24.10;99.90
21778;DHT22;11050;52.222;20.916;2023-06-22T07:50:10;24.10;99.90
21778;DHT22;11050;52.222;20.916;2023-06-22T07:52:36;24.20;99.90
21778;DHT22;11050;52.222;20.916;2023-06-22T07:55:02;24.30;99.90
21778;DHT22;11050;52.222;20.916;2023-06-22T07:57:28;24.30;99.90
21778;DHT22;11050;52.222;20.916;2023-06-22T08:00:02;24.40;99.90
21778;DHT22;11050;52.222;20.916;2023-06-22T08:02:37;24.50;99.90
21778;DHT22;11050;52.222;20.916;2023-06-22T08:05:03;24.60;99.90
21778;DHT22;11050;52.222;20.916;2023-06-22T08:07:29;24.60;99.90
21778;DHT22;11050;52.222;20.916;2023-06-22T08:09:58;24.70;99.90
21778;DHT22;11050;52.222;20.916;2023-06-22T08:12:24;24.80;99.90
21778;DHT22;11050;52.222;20.916;2023-06-22T08:14:50;24.80;99.90
21778;DHT22;11050;52.222;20.916;2023-06-22T08:17:15;24.90;99.90
21778;DHT22;11050;52.222;20.916;2023-06-22T08:19:41;24.90;99.90
21778;DHT22;11050;52.222;20.916;2023-06-22T08:22:07;24.90;99.90
21778;DHT22;11050;52.222;20.916;2023-06-22T08:24:33;25.00;99.90
21778;DHT22;11050;52.222;20.916;2023-06-22T08:26:59;25.00;99.90
21778;DHT22;11050;52.222;20.916;2023-06-22T08:29:24;25.10;99.90
21778;DHT22;11050;52.222;20.916;2023-06-22T08:31:50;25.30;99.90
21778;DHT22;11050;52.222;20.916;2023-06-22T08:34:16;25.40;99.90
21778;DHT22;11050;52.222;20.916;2023-06-22T08:36:47;25.40;99.90
21778;DHT22;11050;52.222;20.916;2023-06-22T08:39:17;25.50;99.90
21778;DHT22;11050;52.222;20.916;2023-06-22T08:41:43;25.50;99.90
21778;DHT22;11050;52.222;20.916;2023-06-22T08:44:10;25.50;99.90
21778;DHT22;11050;52.222;20.916;2023-06-22T08:46:36;25.50;99.90
21778;DHT22;11050;52.222;20.916;2023-06-22T08:49:02;25.60;99.90
21778;DHT22;11050;52.222;20.916;2023-06-22T08:51:28;25.60;99.90
21778;DHT22;11050;52.222;20.916;2023-06-22T08:53:54;25.60;99.90
21778;DHT22;11050;52.222;20.916;2023-06-22T08:56:20;25.70;99.70
21778;DHT22;11050;52.222;20.916;2023-06-22T08:58:46;25.70;98.30
21778;DHT22;11050;52.222;20.916;2023-06-22T09:01:11;25.80;96.10
21778;DHT22;11050;52.222;20.916;2023-06-22T09:03:37;25.80;95.70
21778;DHT22;11050;52.222;20.916;2023-06-22T09:06:03;25.90;94.60
21778;DHT22;11050;52.222;20.916;2023-06-22T09:08:29;25.90;95.30
21778;DHT22;11050;52.222;20.916;2023-06-22T09:10:55;25.90;94.80
21778;DHT22;11050;52.222;20.916;2023-06-22T09:13:20;25.90;95.10
21778;DHT22;11050;52.222;20.916;2023-06-22T09:15:47;26.00;92.90
21778;DHT22;11050;52.222;20.916;2023-06-22T09:18:14;26.00;92.60
21778;DHT22;11050;52.222;20.916;2023-06-22T09:20:39;26.10;91.70
21778;DHT22;11050;52.222;20.916;2023-06-22T09:23:05;26.20;90.30
21778;DHT22;11050;52.222;20.916;2023-06-22T09:25:31;26.30;90.90
21778;DHT22;11050;52.222;20.916;2023-06-22T09:27:56;26.40;88.90
21778;DHT22;11050;52.222;20.916;2023-06-22T09:30:22;26.40;88.00
21778;DHT22;11050;52.222;20.916;2023-06-22T09:32:48;26.50;87.00
21778;DHT22;11050;52.222;20.916;2023-06-22T09:35:14;26.50;88.50
21778;DHT22;11050;52.222;20.916;2023-06-22T09:37:40;26.60;88.50
21778;DHT22;11050;52.222;20.916;2023-06-22T09:40:07;26.70;88.10
21778;DHT22;11050;52.222;20.916;2023-06-22T09:42:38;26.80;84.40
21778;DHT22;11050;52.222;20.916;2023-06-22T09:45:05;26.80;85.10
21778;DHT22;11050;52.222;20.916;2023-06-22T09:47:31;26.90;84.80
21778;DHT22;11050;52.222;20.916;2023-06-22T09:49:57;26.90;83.70
21778;DHT22;11050;52.222;20.916;2023-06-22T09:52:25;26.90;82.80
21778;DHT22;11050;52.222;20.916;2023-06-22T09:54:51;27.00;85.00
21778;DHT22;11050;52.222;20.916;2023-06-22T09:57:16;27.00;82.70
21778;DHT22;11050;52.222;20.916;2023-06-22T09:59:42;27.10;82.80
21778;DHT22;11050;52.222;20.916;2023-06-22T10:02:08;27.20;81.20
21778;DHT22;11050;52.222;20.916;2023-06-22T10:04:35;27.30;78.40
21778;DHT22;11050;52.222;20.916;2023-06-22T10:07:01;27.30;78.50
21778;DHT22;11050;52.222;20.916;2023-06-22T10:09:28;27.40;82.00
21778;DHT22;11050;52.222;20.916;2023-06-22T10:11:53;27.50;79.10
21778;DHT22;11050;52.222;20.916;2023-06-22T10:14:19;27.60;79.10
21778;DHT22;11050;52.222;20.916;2023-06-22T10:16:45;27.70;78.50
21778;DHT22;11050;52.222;20.916;2023-06-22T10:19:11;27.80;78.70
21778;DHT22;11050;52.222;20.916;2023-06-22T10:21:37;27.80;78.60
21778;DHT22;11050;52.222;20.916;2023-06-22T10:24:03;27.90;77.00
21778;DHT22;11050;52.222;20.916;2023-06-22T10:26:32;27.90;75.10
21778;DHT22;11050;52.222;20.916;2023-06-22T10:28:59;28.00;75.90
21778;DHT22;11050;52.222;20.916;2023-06-22T10:31:25;28.10;77.20
21778;DHT22;11050;52.222;20.916;2023-06-22T10:33:51;28.20;77.70
21778;DHT22;11050;52.222;20.916;2023-06-22T10:36:16;28.30;75.20
21778;DHT22;11050;52.222;20.916;2023-06-22T10:38:42;28.30;76.60
21778;DHT22;11050;52.222;20.916;2023-06-22T10:41:08;28.50;75.80
21778;DHT22;11050;52.222;20.916;2023-06-22T10:43:34;28.60;74.60
21778;DHT22;11050;52.222;20.916;2023-06-22T10:45:59;28.70;73.00
21778;DHT22;11050;52.222;20.916;2023-06-22T10:48:25;28.80;72.30
21778;DHT22;11050;52.222;20.916;2023-06-22T10:50:51;28.90;70.90
21778;DHT22;11050;52.222;20.916;2023-06-22T10:53:16;29.10;66.60
21778;DHT22;11050;52.222;20.916;2023-06-22T10:55:42;29.20;64.90
21778;DHT22;11050;52.222;20.916;2023-06-22T10:58:08;29.30;66.10
21778;DHT22;11050;52.222;20.916;2023-06-22T11:00:33;29.30;65.70
21778;DHT22;11050;52.222;20.916;2023-06-22T11:02:59;29.40;65.70
21778;DHT22;11050;52.222;20.916;2023-06-22T11:05:25;29.60;65.50
21778;DHT22;11050;52.222;20.916;2023-06-22T11:07:50;29.80;65.30
21778;DHT22;11050;52.222;20.916;2023-06-22T11:10:16;30.00;65.10
21778;DHT22;11050;52.222;20.916;2023-06-22T11:12:42;30.10;63.00
21778;DHT22;11050;52.222;20.916;2023-06-22T11:15:08;30.20;60.50
21778;DHT22;11050;52.222;20.916;2023-06-22T11:17:35;30.30;61.50
21778;DHT22;11050;52.222;20.916;2023-06-22T11:20:01;30.50;61.40
21778;DHT22;11050;52.222;20.916;2023-06-22T11:22:29;30.70;61.10
21778;DHT22;11050;52.222;20.916;2023-06-22T11:24:58;31.00;59.90
21778;DHT22;11050;52.222;20.916;2023-06-22T11:27:24;31.20;59.30
21778;DHT22;11050;52.222;20.916;2023-06-22T11:29:50;31.40;58.80
21778;DHT22;11050;52.222;20.916;2023-06-22T11:32:18;31.50;57.10
21778;DHT22;11050;52.222;20.916;2023-06-22T11:34:44;31.70;56.50
21778;DHT22;11050;52.222;20.916;2023-06-22T11:37:10;31.80;56.30
21778;DHT22;11050;52.222;20.916;2023-06-22T11:39:36;31.90;55.30
21778;DHT22;11050;52.222;20.916;2023-06-22T11:42:01;32.00;54.70
21778;DHT22;11050;52.222;20.916;2023-06-22T11:44:27;32.10;54.80
21778;DHT22;11050;52.222;20.916;2023-06-22T11:46:53;32.30;55.20
21778;DHT22;11050;52.222;20.916;2023-06-22T11:49:19;32.60;54.00
21778;DHT22;11050;52.222;20.916;2023-06-22T11:51:44;32.70;53.50
21778;DHT22;11050;52.222;20.916;2023-06-22T11:54:10;32.90;53.00
21778;DHT22;11050;52.222;20.916;2023-06-22T11:56:36;33.00;52.40
21778;DHT22;11050;52.222;20.916;2023-06-22T11:59:01;33.10;51.90
21778;DHT22;11050;52.222;20.916;2023-06-22T12:01:27;33.20;50.30
21778;DHT22;11050;52.222;20.916;2023-06-22T12:03:53;33.20;49.50
21778;DHT22;11050;52.222;20.916;2023-06-22T12:06:18;33.40;48.70
21778;DHT22;11050;52.222;20.916;2023-06-22T12:08:44;33.40;48.80
21778;DHT22;11050;52.222;20.916;2023-06-22T12:11:10;33.30;49.20
21778;DHT22;11050;52.222;20.916;2023-06-22T12:13:35;33.30;48.30
21778;DHT22;11050;52.222;20.916;2023-06-22T12:16:01;33.30;48.50
21778;DHT22;11050;52.222;20.916;2023-06-22T12:18:27;33.40;48.80
21778;DHT22;11050;52.222;20.916;2023-06-22T12:20:53;33.40;48.10
21778;DHT22;11050;52.222;20.916;2023-06-22T12:23:18;33.50;48.80
21778;DHT22;11050;52.222;20.916;2023-06-22T12:25:45;33.40;47.70
21778;DHT22;11050;52.222;20.916;2023-06-22T12:28:11;33.20;47.20
21778;DHT22;11050;52.222;20.916;2023-06-22T12:30:37;33.10;48.30
21778;DHT22;11050;52.222;20.916;2023-06-22T12:33:02;33.10;47.90
21778;DHT22;11050;52.222;20.916;2023-06-22T12:35:28;33.20;47.60
21778;DHT22;11050;52.222;20.916;2023-06-22T12:37:54;33.40;47.80
21778;DHT22;11050;52.222;20.916;2023-06-22T12:40:19;33.50;48.20
21778;DHT22;11050;52.222;20.916;2023-06-22T12:42:45;33.70;46.70
21778;DHT22;11050;52.222;20.916;2023-06-22T12:45:11;33.80;46.00
21778;DHT22;11050;52.222;20.916;2023-06-22T12:47:37;33.90;46.00
21778;DHT22;11050;52.222;20.916;2023-06-22T12:50:03;34.00;46.00
21778;DHT22;11050;52.222;20.916;2023-06-22T12:52:30;34.10;44.50
21778;DHT22;11050;52.222;20.916;2023-06-22T12:54:59;34.20;43.60
21778;DHT22;11050;52.222;20.916;2023-06-22T12:57:25;34.10;44.10
21778;DHT22;11050;52.222;20.916;2023-06-22T12:59:51;34.10;44.00
21778;DHT22;11050;52.222;20.916;2023-06-22T13:02:16;34.10;43.30
21778;DHT22;11050;52.222;20.916;2023-06-22T13:04:42;34.30;43.50
21778;DHT22;11050;52.222;20.916;2023-06-22T13:07:09;34.60;42.90
21778;DHT22;11050;52.222;20.916;2023-06-22T13:09:36;35.00;42.40
21778;DHT22;11050;52.222;20.916;2023-06-22T13:12:02;35.20;42.30
21778;DHT22;11050;52.222;20.916;2023-06-22T13:14:28;35.40;42.60
21778;DHT22;11050;52.222;20.916;2023-06-22T13:16:53;35.30;41.40
21778;DHT22;11050;52.222;20.916;2023-06-22T13:19:19;35.10;41.50
21778;DHT22;11050;52.222;20.916;2023-06-22T13:21:45;34.90;41.30
21778;DHT22;11050;52.222;20.916;2023-06-22T13:24:10;34.80;42.20
21778;DHT22;11050;52.222;20.916;2023-06-22T13:26:36;34.80;42.40
21778;DHT22;11050;52.222;20.916;2023-06-22T13:29:02;35.00;42.10
21778;DHT22;11050;52.222;20.916;2023-06-22T13:31:28;35.30;41.60
21778;DHT22;11050;52.222;20.916;2023-06-22T13:33:53;35.70;41.30
21778;DHT22;11050;52.222;20.916;2023-06-22T13:36:19;35.90;40.00
21778;DHT22;11050;52.222;20.916;2023-06-22T13:38:45;36.10;40.30
21778;DHT22;11050;52.222;20.916;2023-06-22T13:41:11;36.30;38.50
21778;DHT22;11050;52.222;20.916;2023-06-22T13:43:36;36.20;38.70
21778;DHT22;11050;52.222;20.916;2023-06-22T13:46:02;36.20;39.20
21778;DHT22;11050;52.222;20.916;2023-06-22T13:48:28;36.10;40.00
21778;DHT22;11050;52.222;20.916;2023-06-22T13:50:54;36.20;39.90
21778;DHT22;11050;52.222;20.916;2023-06-22T13:53:20;36.40;41.40
21778;DHT22;11050;52.222;20.916;2023-06-22T13:55:45;36.60;38.70
21778;DHT22;11050;52.222;20.916;2023-06-22T13:58:13;36.80;39.30
21778;DHT22;11050;52.222;20.916;2023-06-22T14:00:39;36.90;37.80
21778;DHT22;11050;52.222;20.916;2023-06-22T14:03:04;36.80;37.60
21778;DHT22;11050;52.222;20.916;2023-06-22T14:05:30;36.60;37.10
21778;DHT22;11050;52.222;20.916;2023-06-22T14:07:56;36.70;37.10
21778;DHT22;11050;52.222;20.916;2023-06-22T14:10:22;36.80;37.10
21778;DHT22;11050;52.222;20.916;2023-06-22T14:12:48;36.80;37.40
21778;DHT22;11050;52.222;20.916;2023-06-22T14:15:13;36.90;36.80
21778;DHT22;11050;52.222;20.916;2023-06-22T14:17:39;37.10;37.10
21778;DHT22;11050;52.222;20.916;2023-06-22T14:20:05;36.90;36.90
21778;DHT22;11050;52.222;20.916;2023-06-22T14:22:33;36.80;36.40
21778;DHT22;11050;52.222;20.916;2023-06-22T14:25:01;36.50;36.80
21778;DHT22;11050;52.222;20.916;2023-06-22T14:27:27;36.00;37.60
21778;DHT22;11050;52.222;20.916;2023-06-22T14:29:53;35.60;37.60
21778;DHT22;11050;52.222;20.916;2023-06-22T14:32:19;35.40;39.50
21778;DHT22;11050;52.222;20.916;2023-06-22T14:34:44;35.50;39.50
21778;DHT22;11050;52.222;20.916;2023-06-22T14:37:10;35.80;39.30
21778;DHT22;11050;52.222;20.916;2023-06-22T14:39:38;36.10;40.00
21778;DHT22;11050;52.222;20.916;2023-06-22T14:42:05;36.50;38.60
21778;DHT22;11050;52.222;20.916;2023-06-22T14:44:31;36.60;38.10
21778;DHT22;11050;52.222;20.916;2023-06-22T14:46:57;36.70;37.80
21778;DHT22;11050;52.222;20.916;2023-06-22T14:49:23;36.80;39.10
21778;DHT22;11050;52.222;20.916;2023-06-22T14:51:49;37.10;37.90
21778;DHT22;11050;52.222;20.916;2023-06-22T14:54:16;37.30;36.50
21778;DHT22;11050;52.222;20.916;2023-06-22T14:56:41;37.50;35.40
21778;DHT22;11050;52.222;20.916;2023-06-22T14:59:09;37.70;35.10
21778;DHT22;11050;52.222;20.916;2023-06-22T15:01:34;37.80;34.90
21778;DHT22;11050;52.222;20.916;2023-06-22T15:04:00;37.80;34.10
21778;DHT22;11050;52.222;20.916;2023-06-22T15:06:26;37.70;34.70
21778;DHT22;11050;52.222;20.916;2023-06-22T15:08:52;37.60;34.70
21778;DHT22;11050;52.222;20.916;2023-06-22T15:11:20;37.60;34.50
21778;DHT22;11050;52.222;20.916;2023-06-22T15:13:46;37.40;35.10
21778;DHT22;11050;52.222;20.916;2023-06-22T15:16:11;37.20;34.80